Time;durP1;ratioP1;P1;durP2;ratioP2;P2;SDS_P1;SDS_P2;PMS_P1;PMS_P2;Temp;Humidity;BMP_temperature;BMP_pressure;BME280_temperature;BME280_humidity;BME280_pressure;Samples;Min_cycle;Max_cycle;Signal;HPM_P1;HPM_P2
2023/10/28 00:02:23;;;;;;;7.78;3.90;;;;;;;;;;5052619;28;20029;-70
2023/10/28 00:04:51;;;;;;;7.47;3.92;;;;;;;;;;5052398;28;20031;-70
2023/10/28 00:07:17;;;;;;;6.93;4.15;;;;;;;;;;5052712;28;20033;-70
2023/10/28 00:09:43;;;;;;;13.30;6.35;;;;;;;;;;5052597;28;20047;-70
2023/10/28 00:12:13;;;;;;;10.95;5.03;;;;;;;;;;5052128;28;20028;-70
2023/10/28 00:14:39;;;;;;;10.55;5.30;;;;;;;;;;5052338;28;20029;-70
2023/10/28 00:17:06;;;;;;;13.82;4.72;;;;;;;;;;5054869;28;20021;-70
2023/10/28 00:19:32;;;;;;;9.80;5.68;;;;;;;;;;5056243;28;20029;-70
2023/10/28 00:21:58;;;;;;;7.38;4.90;;;;;;;;;;5056548;28;20017;-70
2023/10/28 00:24:25;;;;;;;8.05;4.97;;;;;;;;;;5056313;28;20037;-70
2023/10/28 00:26:51;;;;;;;16.85;5.65;;;;;;;;;;5055813;28;20021;-70
2023/10/28 00:29:17;;;;;;;27.65;6.47;;;;;;;;;;5055938;28;20021;-70
2023/10/28 00:31:44;;;;;;;8.82;5.13;;;;;;;;;;5055961;28;20432;-70
2023/10/28 00:34:10;;;;;;;14.43;5.85;;;;;;;;;;5055890;28;20412;-70
2023/10/28 00:36:36;;;;;;;11.88;5.07;;;;;;;;;;5056239;28;20082;-70
2023/10/28 00:39:03;;;;;;;12.68;5.78;;;;;;;;;;5056154;28;20036;-70
2023/10/28 00:41:32;;;;;;;9.02;5.30;;;;;;;;;;5055541;28;20028;-70
2023/10/28 00:43:58;;;;;;;11.13;5.30;;;;;;;;;;5055824;28;20029;-70
2023/10/28 00:46:25;;;;;;;12.20;5.25;;;;;;;;;;5056279;28;20021;-70
2023/10/28 00:48:53;;;;;;;6.82;4.75;;;;;;;;;;5055590;28;20492;-70
2023/10/28 00:51:19;;;;;;;10.68;5.38;;;;;;;;;;5054525;28;20033;-70
2023/10/28 00:53:45;;;;;;;16.65;5.18;;;;;;;;;;5055719;28;20037;-70
2023/10/28 00:56:12;;;;;;;21.35;5.32;;;;;;;;;;5055587;28;20029;-70
2023/10/28 00:58:40;;;;;;;23.48;5.65;;;;;;;;;;5055649;28;20045;-70
2023/10/28 01:01:10;;;;;;;13.95;6.05;;;;;;;;;;5055891;28;20018;-70
2023/10/28 01:03:36;;;;;;;14.07;5.45;;;;;;;;;;5055411;28;20371;-70
2023/10/28 01:06:03;;;;;;;15.20;5.93;;;;;;;;;;5055449;28;20359;-70
2023/10/28 01:08:29;;;;;;;11.13;5.53;;;;;;;;;;5055349;28;20025;-70
2023/10/28 01:11:00;;;;;;;11.52;5.80;;;;;;;;;;5055016;28;20110;-70
2023/10/28 01:13:27;;;;;;;19.13;6.45;;;;;;;;;;5055127;28;20017;-70
2023/10/28 01:15:53;;;;;;;19.63;6.28;;;;;;;;;;5055529;28;20029;-70
2023/10/28 01:18:20;;;;;;;15.00;6.43;;;;;;;;;;5055475;28;20021;-70
2023/10/28 01:20:47;;;;;;;54.00;6.75;;;;;;;;;;5055209;28;20474;-70
2023/10/28 01:23:13;;;;;;;10.75;6.38;;;;;;;;;;5055018;28;20368;-71
2023/10/28 01:25:39;;;;;;;15.60;5.55;;;;;;;;;;5054662;28;20032;-70
2023/10/28 01:28:07;;;;;;;17.50;5.45;;;;;;;;;;5054824;28;20082;-71
2023/10/28 01:30:34;;;;;;;28.90;5.55;;;;;;;;;;5054857;28;20480;-70
2023/10/28 01:33:02;;;;;;;36.78;5.40;;;;;;;;;;5054689;28;20025;-70
2023/10/28 01:35:29;;;;;;;11.05;4.20;;;;;;;;;;5054875;28;20490;-70
2023/10/28 01:37:55;;;;;;;12.88;4.95;;;;;;;;;;5054759;28;20021;-70
2023/10/28 01:40:22;;;;;;;22.65;5.35;;;;;;;;;;5054874;28;20477;-71
2023/10/28 01:42:48;;;;;;;36.95;5.60;;;;;;;;;;5054870;28;20031;-70
2023/10/28 01:45:15;;;;;;;20.73;5.20;;;;;;;;;;5054915;28;20028;-70
2023/10/28 01:47:42;;;;;;;28.52;5.82;;;;;;;;;;5054545;28;20385;-70
2023/10/28 01:50:11;;;;;;;9.35;5.35;;;;;;;;;;5054560;28;20470;-70
2023/10/28 01:52:38;;;;;;;37.47;6.50;;;;;;;;;;5054239;28;20028;-70
2023/10/28 01:55:04;;;;;;;67.78;6.60;;;;;;;;;;5054522;28;20037;-70
2023/10/28 01:57:31;;;;;;;104.43;6.63;;;;;;;;;;5054321;28;20023;-69
2023/10/28 01:59:58;;;;;;;67.78;6.00;;;;;;;;;;5054396;28;20037;-70
2023/10/28 02:02:24;;;;;;;61.78;6.55;;;;;;;;;;5054529;28;20021;-70
2023/10/28 02:04:51;;;;;;;35.58;6.78;;;;;;;;;;5054328;28;20454;-70
2023/10/28 02:07:17;;;;;;;12.50;5.68;;;;;;;;;;5053018;28;20114;-70
2023/10/28 02:09:44;;;;;;;50.08;6.18;;;;;;;;;;5054219;28;20497;-70
2023/10/28 02:12:10;;;;;;;21.73;5.80;;;;;;;;;;5054455;28;20025;-70
2023/10/28 02:14:37;;;;;;;8.25;5.63;;;;;;;;;;5052882;28;20033;-70
2023/10/28 02:17:04;;;;;;;9.27;4.25;;;;;;;;;;5054364;28;20033;-70
2023/10/28 02:19:31;;;;;;;6.75;4.30;;;;;;;;;;5054023;28;20028;-70
2023/10/28 02:21:58;;;;;;;10.00;4.10;;;;;;;;;;5053785;28;20029;-70
2023/10/28 02:24:24;;;;;;;13.57;4.13;;;;;;;;;;5053846;28;20021;-70
2023/10/28 02:26:51;;;;;;;8.38;3.53;;;;;;;;;;5053839;28;20435;-70
2023/10/28 02:29:17;;;;;;;33.03;4.18;;;;;;;;;;5053662;28;20498;-70
2023/10/28 02:31:44;;;;;;;26.63;4.53;;;;;;;;;;5054073;28;20029;-70
2023/10/28 02:34:11;;;;;;;24.92;4.15;;;;;;;;;;5053823;28;20033;-70
2023/10/28 02:36:41;;;;;;;18.20;4.57;;;;;;;;;;5053347;28;20024;-70
2023/10/28 02:39:07;;;;;;;6.43;4.05;;;;;;;;;;5052937;28;20032;-70
2023/10/28 02:41:33;;;;;;;9.48;4.13;;;;;;;;;;5054089;28;20029;-70
2023/10/28 02:44:02;;;;;;;16.00;4.55;;;;;;;;;;5053371;28;20027;-70
2023/10/28 02:46:28;;;;;;;39.80;4.75;;;;;;;;;;5053748;28;20037;-70
2023/10/28 02:48:54;;;;;;;47.10;5.05;;;;;;;;;;5053722;28;20033;-70
2023/10/28 02:51:21;;;;;;;19.13;3.85;;;;;;;;;;5053276;28;20027;-70
2023/10/28 02:53:47;;;;;;;23.98;3.80;;;;;;;;;;5053309;28;20033;-70
2023/10/28 02:56:13;;;;;;;17.13;4.43;;;;;;;;;;5053427;28;20024;-70
2023/10/28 02:58:40;;;;;;;48.33;4.93;;;;;;;;;;5053092;28;20044;-70
2023/10/28 03:01:12;;;;;;;21.13;4.45;;;;;;;;;;5053427;28;20032;-70
2023/10/28 03:03:41;;;;;;;28.60;4.80;;;;;;;;;;5053301;28;20027;-70
2023/10/28 03:06:07;;;;;;;10.52;4.47;;;;;;;;;;5052854;28;20020;-70
2023/10/28 03:08:33;;;;;;;12.82;4.55;;;;;;;;;;5053393;28;20025;-70
2023/10/28 03:11:00;;;;;;;17.67;4.40;;;;;;;;;;5053195;28;20033;-70
2023/10/28 03:13:26;;;;;;;12.65;4.57;;;;;;;;;;5052962;28;20024;-70
2023/10/28 03:15:53;;;;;;;12.85;4.50;;;;;;;;;;5053035;28;20025;-70
2023/10/28 03:18:20;;;;;;;11.68;4.45;;;;;;;;;;5052928;28;20013;-70
2023/10/28 03:20:46;;;;;;;11.50;3.80;;;;;;;;;;5052655;28;20031;-70
2023/10/28 03:23:12;;;;;;;11.88;3.80;;;;;;;;;;5052683;28;20036;-70
2023/10/28 03:25:39;;;;;;;33.25;4.38;;;;;;;;;;5052713;28;20029;-70
2023/10/28 03:28:05;;;;;;;31.50;4.07;;;;;;;;;;5052720;28;20013;-70
2023/10/28 03:30:31;;;;;;;65.50;4.43;;;;;;;;;;5052892;28;20428;-70
2023/10/28 03:32:58;;;;;;;38.75;5.10;;;;;;;;;;5052557;28;20062;-70
2023/10/28 03:35:24;;;;;;;16.60;4.30;;;;;;;;;;5052312;28;20482;-70
2023/10/28 03:37:51;;;;;;;20.50;4.00;;;;;;;;;;5052798;28;20047;-70
2023/10/28 03:40:17;;;;;;;15.15;4.18;;;;;;;;;;5052723;28;20025;-70
2023/10/28 03:42:43;;;;;;;10.27;4.43;;;;;;;;;;5052558;28;20047;-70
2023/10/28 03:45:10;;;;;;;20.17;4.47;;;;;;;;;;5052430;28;20035;-70
2023/10/28 03:47:39;;;;;;;35.42;4.55;;;;;;;;;;5052485;28;20043;-70
2023/10/28 03:50:06;;;;;;;28.15;4.65;;;;;;;;;;5052218;28;20054;-70
2023/10/28 03:52:33;;;;;;;9.25;4.00;;;;;;;;;;5052405;28;20031;-70
2023/10/28 03:54:59;;;;;;;12.30;3.92;;;;;;;;;;5052329;28;20379;-70
2023/10/28 03:57:25;;;;;;;7.07;3.80;;;;;;;;;;5052523;28;20025;-70
2023/10/28 03:59:51;;;;;;;18.88;3.45;;;;;;;;;;5052233;28;20505;-70
2023/10/28 04:02:18;;;;;;;12.18;4.00;;;;;;;;;;5052426;28;20029;-70
2023/10/28 04:04:45;;;;;;;11.52;3.50;;;;;;;;;;5052231;28;20465;-70
2023/10/28 04:07:11;;;;;;;4.22;2.53;;;;;;;;;;5052377;28;20037;-70
2023/10/28 04:09:38;;;;;;;8.93;2.30;;;;;;;;;;5052594;28;20035;-70
2023/10/28 04:12:05;;;;;;;27.13;3.17;;;;;;;;;;5051471;28;20036;-70
2023/10/28 04:14:35;;;;;;;8.18;2.17;;;;;;;;;;5051156;28;20037;-70
2023/10/28 04:17:03;;;;;;;7.15;2.22;;;;;;;;;;5052288;28;20392;-69
2023/10/28 04:19:29;;;;;;;6.22;1.90;;;;;;;;;;5051977;28;20393;-70
2023/10/28 04:21:55;;;;;;;8.27;1.90;;;;;;;;;;5052667;28;20021;-70
2023/10/28 04:24:23;;;;;;;6.80;2.00;;;;;;;;;;5052211;28;20401;-70
2023/10/28 04:26:50;;;;;;;3.83;1.60;;;;;;;;;;5052340;28;20420;-70
2023/10/28 04:29:16;;;;;;;18.55;2.70;;;;;;;;;;5052444;28;20078;-70
2023/10/28 04:31:42;;;;;;;9.82;2.75;;;;;;;;;;5052055;28;20024;-70
2023/10/28 04:34:09;;;;;;;7.90;2.10;;;;;;;;;;5051705;28;20037;-70
2023/10/28 04:36:35;;;;;;;17.42;3.20;;;;;;;;;;5052109;28;20029;-70
2023/10/28 04:39:02;;;;;;;3.80;2.47;;;;;;;;;;5052096;28;20477;-70
2023/10/28 04:41:28;;;;;;;8.85;2.78;;;;;;;;;;5052119;28;20367;-70
2023/10/28 04:43:55;;;;;;;10.57;2.38;;;;;;;;;;5052151;28;20033;-70
2023/10/28 04:46:21;;;;;;;32.78;3.03;;;;;;;;;;5051100;28;20086;-70
2023/10/28 04:48:47;;;;;;;40.25;3.55;;;;;;;;;;5051847;28;20040;-70
2023/10/28 04:51:14;;;;;;;12.32;2.92;;;;;;;;;;5052023;28;20021;-70
2023/10/28 04:53:40;;;;;;;28.70;3.53;;;;;;;;;;5051866;28;20428;-70
2023/10/28 04:56:08;;;;;;;15.63;3.50;;;;;;;;;;5052338;28;20025;-70
2023/10/28 04:58:34;;;;;;;14.23;3.65;;;;;;;;;;5052082;28;20049;-70
2023/10/28 05:01:01;;;;;;;11.25;3.75;;;;;;;;;;5051660;28;20074;-70
2023/10/28 05:03:27;;;;;;;18.90;3.90;;;;;;;;;;5055031;28;20019;-70
2023/10/28 05:05:54;;;;;;;12.48;3.80;;;;;;;;;;5055470;28;20025;-70
2023/10/28 05:08:20;;;;;;;11.02;4.10;;;;;;;;;;5055863;28;20052;-70
2023/10/28 05:10:47;;;;;;;5.72;3.92;;;;;;;;;;5055400;28;20028;-70
2023/10/28 05:13:13;;;;;;;10.95;3.70;;;;;;;;;;5055373;28;20020;-70
2023/10/28 05:15:39;;;;;;;11.90;3.90;;;;;;;;;;5054903;28;20281;-70
2023/10/28 05:18:06;;;;;;;10.13;4.20;;;;;;;;;;5055315;28;20023;-70
2023/10/28 05:20:35;;;;;;;10.32;4.03;;;;;;;;;;5055392;28;20025;-70
2023/10/28 05:23:02;;;;;;;9.25;4.00;;;;;;;;;;5055061;28;20082;-70
2023/10/28 05:25:28;;;;;;;6.63;3.03;;;;;;;;;;5055250;28;20025;-70
2023/10/28 05:27:54;;;;;;;10.25;3.67;;;;;;;;;;5055149;28;20025;-70
2023/10/28 05:30:21;;;;;;;10.15;3.80;;;;;;;;;;5054661;28;20025;-70
2023/10/28 05:32:47;;;;;;;13.07;3.28;;;;;;;;;;5055111;28;20428;-70
2023/10/28 05:35:13;;;;;;;16.50;3.47;;;;;;;;;;5054806;28;20025;-70
2023/10/28 05:37:40;;;;;;;10.32;3.38;;;;;;;;;;5054777;28;20089;-70
2023/10/28 05:40:15;;;;;;;4.15;2.75;;;;;;;;;;5054859;28;20037;-70
2023/10/28 05:42:42;;;;;;;5.38;2.40;;;;;;;;;;5054735;28;20032;-71
2023/10/28 05:45:08;;;;;;;4.65;2.10;;;;;;;;;;5054447;28;20039;-70
2023/10/28 05:47:35;;;;;;;6.30;2.05;;;;;;;;;;5054675;28;20478;-70
2023/10/28 05:50:05;;;;;;;5.75;1.92;;;;;;;;;;5054612;28;20027;-70
2023/10/28 05:52:34;;;;;;;6.50;1.85;;;;;;;;;;5054469;28;20025;-70
2023/10/28 05:55:01;;;;;;;5.35;1.77;;;;;;;;;;5054391;28;20033;-70
2023/10/28 05:57:29;;;;;;;4.85;2.03;;;;;;;;;;5054535;28;20024;-70
2023/10/28 05:59:55;;;;;;;6.25;2.25;;;;;;;;;;5054323;28;20037;-70
2023/10/28 06:02:21;;;;;;;5.60;2.55;;;;;;;;;;5054282;28;20029;-70
2023/10/28 06:04:48;;;;;;;4.57;2.30;;;;;;;;;;5054408;28;20029;-70
2023/10/28 06:07:14;;;;;;;3.60;1.92;;;;;;;;;;5054598;28;20021;-70
2023/10/28 06:09:40;;;;;;;2.78;1.88;;;;;;;;;;5054516;28;20039;-70
2023/10/28 06:12:07;;;;;;;6.53;2.10;;;;;;;;;;5054280;28;20028;-70
2023/10/28 06:14:33;;;;;;;6.70;2.00;;;;;;;;;;5052603;28;20033;-70
2023/10/28 06:16:59;;;;;;;5.97;1.65;;;;;;;;;;5054090;28;20463;-70
2023/10/28 06:19:26;;;;;;;7.22;1.52;;;;;;;;;;5054427;28;20029;-70
2023/10/28 06:21:52;;;;;;;4.38;1.50;;;;;;;;;;5053956;28;20021;-70
2023/10/28 06:24:18;;;;;;;3.70;1.30;;;;;;;;;;5054195;28;20025;-70
2023/10/28 06:26:45;;;;;;;5.45;1.52;;;;;;;;;;5053901;28;20025;-70
2023/10/28 06:29:12;;;;;;;1.92;1.40;;;;;;;;;;5053484;28;20039;-70
2023/10/28 06:31:39;;;;;;;6.18;1.52;;;;;;;;;;5054059;28;20025;-71
2023/10/28 06:34:06;;;;;;;5.05;1.23;;;;;;;;;;5053679;28;20035;-70
2023/10/28 06:36:33;;;;;;;5.90;1.75;;;;;;;;;;5054130;28;20023;-70
2023/10/28 06:38:59;;;;;;;4.82;1.73;;;;;;;;;;5053863;28;20029;-70
2023/10/28 06:41:25;;;;;;;5.15;1.50;;;;;;;;;;5052342;28;20027;-70
2023/10/28 06:43:52;;;;;;;5.53;1.75;;;;;;;;;;5053346;28;20037;-70
2023/10/28 06:46:19;;;;;;;9.43;1.95;;;;;;;;;;5053809;28;20031;-70
2023/10/28 06:48:46;;;;;;;6.43;2.25;;;;;;;;;;5053563;28;20489;-70
2023/10/28 06:51:12;;;;;;;5.90;2.58;;;;;;;;;;5053414;28;20375;-70
2023/10/28 06:53:42;;;;;;;7.95;4.22;;;;;;;;;;5053448;28;20051;-70
2023/10/28 06:56:08;;;;;;;7.32;4.45;;;;;;;;;;5053310;28;20439;-70
2023/10/28 06:58:35;;;;;;;5.60;2.90;;;;;;;;;;5052759;28;20090;-70
2023/10/28 07:01:02;;;;;;;4.65;2.22;;;;;;;;;;5053445;28;20466;-70
2023/10/28 07:03:29;;;;;;;10.98;2.63;;;;;;;;;;5053332;28;20481;-70
2023/10/28 07:05:55;;;;;;;6.32;2.30;;;;;;;;;;5053567;28;20025;-70
2023/10/28 07:08:21;;;;;;;3.00;2.03;;;;;;;;;;5053082;28;20029;-70
2023/10/28 07:10:48;;;;;;;6.00;1.80;;;;;;;;;;5053084;28;20475;-70
2023/10/28 07:13:14;;;;;;;2.70;1.77;;;;;;;;;;5052723;28;20025;-70
2023/10/28 07:15:41;;;;;;;3.67;1.92;;;;;;;;;;5052777;28;20033;-70
2023/10/28 07:18:08;;;;;;;3.42;1.80;;;;;;;;;;5053002;28;20028;-70
2023/10/28 07:20:34;;;;;;;4.50;2.20;;;;;;;;;;5053009;28;20037;-70
2023/10/28 07:23:02;;;;;;;5.45;2.33;;;;;;;;;;5053056;28;20075;-70
2023/10/28 07:25:29;;;;;;;5.85;1.73;;;;;;;;;;5052724;28;20027;-70
2023/10/28 07:27:55;;;;;;;9.82;1.90;;;;;;;;;;5052675;28;20028;-70
2023/10/28 07:30:22;;;;;;;3.30;1.40;;;;;;;;;;5053028;28;20021;-70
2023/10/28 07:32:49;;;;;;;3.08;1.40;;;;;;;;;;5052737;28;20017;-70
2023/10/28 07:35:19;;;;;;;2.65;1.60;;;;;;;;;;5052835;28;20590;-69
2023/10/28 07:37:46;;;;;;;3.63;1.90;;;;;;;;;;5052610;28;20385;-70
2023/10/28 07:40:12;;;;;;;4.43;1.92;;;;;;;;;;5051723;28;20028;-70
2023/10/28 07:42:38;;;;;;;6.60;2.67;;;;;;;;;;5052525;28;20017;-70
2023/10/28 07:45:05;;;;;;;5.47;2.30;;;;;;;;;;5052422;28;20078;-70
2023/10/28 07:47:31;;;;;;;3.63;2.05;;;;;;;;;;5052561;28;20025;-70
2023/10/28 07:49:58;;;;;;;7.25;1.85;;;;;;;;;;5052841;28;20035;-70
2023/10/28 07:52:24;;;;;;;7.28;1.75;;;;;;;;;;5052409;28;20397;-70
2023/10/28 07:54:50;;;;;;;3.90;1.50;;;;;;;;;;5052560;28;20043;-70
2023/10/28 07:57:17;;;;;;;4.65;1.50;;;;;;;;;;5052538;28;20486;-70
2023/10/28 07:59:43;;;;;;;4.53;1.80;;;;;;;;;;5052244;28;20048;-70
2023/10/28 08:02:10;;;;;;;5.38;1.45;;;;;;;;;;5052471;28;20539;-71
2023/10/28 08:04:37;;;;;;;3.60;1.75;;;;;;;;;;5052432;28;20028;-71
2023/10/28 08:07:03;;;;;;;2.78;1.83;;;;;;;;;;5052385;28;20428;-70
2023/10/28 08:09:30;;;;;;;3.30;1.45;;;;;;;;;;5052069;28;20055;-70
2023/10/28 08:11:56;;;;;;;1.58;1.30;;;;;;;;;;5052648;28;20075;-71
2023/10/28 08:14:22;;;;;;;3.95;1.40;;;;;;;;;;5052120;28;20043;-71
2023/10/28 08:16:49;;;;;;;2.55;1.58;;;;;;;;;;5052351;28;20058;-71
2023/10/28 08:19:15;;;;;;;3.75;1.50;;;;;;;;;;5052281;28;20033;-71
2023/10/28 08:21:41;;;;;;;5.13;1.50;;;;;;;;;;5052230;28;20428;-71
2023/10/28 08:24:11;;;;;;;10.30;5.68;;;;;;;;;;5051893;28;20090;-71
2023/10/28 08:26:38;;;;;;;3.27;1.87;;;;;;;;;;5052242;28;20470;-71
2023/10/28 08:29:05;;;;;;;3.20;1.35;;;;;;;;;;5052197;28;20492;-71
2023/10/28 08:31:31;;;;;;;5.38;1.40;;;;;;;;;;5052420;28;20035;-71
2023/10/28 08:33:57;;;;;;;3.55;1.65;;;;;;;;;;5052033;28;20032;-71
2023/10/28 08:36:25;;;;;;;2.60;1.30;;;;;;;;;;5052089;28;20029;-71
2023/10/28 08:38:51;;;;;;;5.05;1.40;;;;;;;;;;5055779;28;20025;-71
2023/10/28 08:41:21;;;;;;;5.80;1.70;;;;;;;;;;5056049;28;20036;-71
2023/10/28 08:43:48;;;;;;;3.13;1.25;;;;;;;;;;5055896;28;20013;-71
2023/10/28 08:46:16;;;;;;;1.83;1.05;;;;;;;;;;5055952;28;20047;-71
2023/10/28 08:48:43;;;;;;;3.80;1.48;;;;;;;;;;5055817;28;20021;-71
2023/10/28 08:51:11;;;;;;;4.15;1.42;;;;;;;;;;5055751;28;20027;-71
2023/10/28 08:53:37;;;;;;;3.08;1.23;;;;;;;;;;5055565;28;20021;-71
2023/10/28 08:56:03;;;;;;;1.77;1.02;;;;;;;;;;5055649;28;20031;-71
2023/10/28 08:58:30;;;;;;;4.82;1.25;;;;;;;;;;5055636;28;20409;-71
2023/10/28 09:01:01;;;;;;;3.80;1.55;;;;;;;;;;5055842;28;20482;-71
2023/10/28 09:03:28;;;;;;;5.78;1.40;;;;;;;;;;5054455;28;20033;-71
2023/10/28 09:05:55;;;;;;;3.88;1.40;;;;;;;;;;5055734;28;20440;-71
2023/10/28 09:08:27;;;;;;;5.05;1.70;;;;;;;;;;5054972;28;20057;-71
2023/10/28 09:10:54;;;;;;;3.85;1.23;;;;;;;;;;5055305;28;20492;-71
2023/10/28 09:13:20;;;;;;;4.05;1.50;;;;;;;;;;5055273;28;20035;-71
2023/10/28 09:15:46;;;;;;;2.70;1.30;;;;;;;;;;5055452;28;20045;-71
2023/10/28 09:18:13;;;;;;;5.85;1.65;;;;;;;;;;5055195;28;20389;-71
2023/10/28 09:20:40;;;;;;;3.13;1.38;;;;;;;;;;5055489;28;20029;-72
2023/10/28 09:23:06;;;;;;;8.15;1.33;;;;;;;;;;5054836;28;20483;-72
2023/10/28 09:25:34;;;;;;;7.10;1.63;;;;;;;;;;5055603;28;20028;-72
2023/10/28 09:28:07;;;;;;;3.15;1.30;;;;;;;;;;5053793;28;20035;-72
2023/10/28 09:30:43;;;;;;;3.72;1.40;;;;;;;;;;5054982;28;20033;-71
2023/10/28 09:33:10;;;;;;;4.32;1.77;;;;;;;;;;5054976;28;20033;-72
2023/10/28 09:35:39;;;;;;;2.08;1.42;;;;;;;;;;5054891;28;20029;-72
2023/10/28 09:38:07;;;;;;;5.15;1.30;;;;;;;;;;5054517;28;20029;-72
2023/10/28 09:40:34;;;;;;;3.17;1.60;;;;;;;;;;5054896;28;20027;-71
2023/10/28 09:43:04;;;;;;;4.72;1.60;;;;;;;;;;5054707;28;20029;-72
2023/10/28 09:45:31;;;;;;;6.32;1.42;;;;;;;;;;5054691;28;20017;-71
2023/10/28 09:48:01;;;;;;;2.70;1.60;;;;;;;;;;5054486;28;20025;-71
2023/10/28 09:50:29;;;;;;;3.20;1.27;;;;;;;;;;5054577;28;20507;-72
2023/10/28 09:52:57;;;;;;;4.25;1.25;;;;;;;;;;5054277;28;20021;-72
2023/10/28 09:55:24;;;;;;;4.05;1.48;;;;;;;;;;5054672;28;20040;-72
2023/10/28 09:57:52;;;;;;;2.58;1.50;;;;;;;;;;5054593;28;20035;-72
2023/10/28 10:00:21;;;;;;;4.88;1.83;;;;;;;;;;5054476;28;20044;-72
2023/10/28 10:02:54;;;;;;;2.90;1.63;;;;;;;;;;5054408;28;20033;-72
2023/10/28 10:05:33;;;;;;;4.53;1.50;;;;;;;;;;5054682;28;20082;-72
2023/10/28 10:08:00;;;;;;;3.13;1.80;;;;;;;;;;5054327;28;20033;-72
2023/10/28 10:10:27;;;;;;;3.65;1.85;;;;;;;;;;5054481;28;20032;-72
2023/10/28 10:13:03;;;;;;;3.90;1.92;;;;;;;;;;5054187;28;20024;-72
2023/10/28 10:15:33;;;;;;;3.42;1.70;;;;;;;;;;5054025;28;20397;-72
2023/10/28 10:18:09;;;;;;;4.30;1.55;;;;;;;;;;5054255;28;20029;-72
2023/10/28 10:20:36;;;;;;;4.65;1.40;;;;;;;;;;5053986;28;20031;-72
2023/10/28 10:23:03;;;;;;;6.57;1.63;;;;;;;;;;5053987;28;20028;-72
2023/10/28 10:25:33;;;;;;;11.43;2.10;;;;;;;;;;5054000;28;20469;-72
2023/10/28 10:28:06;;;;;;;11.60;2.38;;;;;;;;;;5054191;28;20021;-72
2023/10/28 10:30:36;;;;;;;8.35;2.92;;;;;;;;;;5053886;28;20032;-71
2023/10/28 10:33:03;;;;;;;4.45;1.70;;;;;;;;;;5053742;28;20021;-72
2023/10/28 10:35:33;;;;;;;6.32;2.00;;;;;;;;;;5053438;28;20397;-72
2023/10/28 10:38:01;;;;;;;4.45;1.83;;;;;;;;;;5054047;28;20013;-72
2023/10/28 10:40:28;;;;;;;14.18;7.78;;;;;;;;;;5053709;28;20393;-72
2023/10/28 10:42:56;;;;;;;6.97;2.13;;;;;;;;;;5053619;28;20031;-72
2023/10/28 10:45:22;;;;;;;2.95;1.60;;;;;;;;;;5053563;28;20025;-72
2023/10/28 10:47:49;;;;;;;4.05;1.60;;;;;;;;;;5053841;28;20184;-72
2023/10/28 10:50:16;;;;;;;3.53;1.08;;;;;;;;;;5053159;28;20017;-72
2023/10/28 10:52:42;;;;;;;4.10;1.20;;;;;;;;;;5053496;28;20385;-72
2023/10/28 10:55:08;;;;;;;2.80;1.05;;;;;;;;;;5053408;28;20059;-72
2023/10/28 10:57:36;;;;;;;6.75;1.42;;;;;;;;;;5053474;28;20027;-72
2023/10/28 11:00:11;;;;;;;5.55;1.40;;;;;;;;;;5052706;28;20044;-72
2023/10/28 11:02:38;;;;;;;3.97;1.83;;;;;;;;;;5053187;28;20033;-72
2023/10/28 11:05:05;;;;;;;4.18;1.35;;;;;;;;;;5052863;28;20429;-72
2023/10/28 11:07:31;;;;;;;3.78;1.20;;;;;;;;;;5053111;28;20024;-72
2023/10/28 11:09:57;;;;;;;3.22;1.30;;;;;;;;;;5053181;28;20482;-72
2023/10/28 11:12:24;;;;;;;2.92;1.08;;;;;;;;;;5053297;28;20017;-72
2023/10/28 11:14:54;;;;;;;4.03;1.20;;;;;;;;;;5052896;28;20045;-72
2023/10/28 11:17:21;;;;;;;5.57;1.42;;;;;;;;;;5053127;28;20493;-72
2023/10/28 11:19:48;;;;;;;3.05;1.20;;;;;;;;;;5052676;28;20037;-72
2023/10/28 11:22:16;;;;;;;2.22;1.13;;;;;;;;;;5052904;28;20024;-72
2023/10/28 11:24:42;;;;;;;2.85;0.95;;;;;;;;;;5052933;28;20028;-72
2023/10/28 11:27:09;;;;;;;3.90;1.05;;;;;;;;;;5053069;28;20025;-72
2023/10/28 11:29:38;;;;;;;2.88;1.00;;;;;;;;;;5052929;28;20401;-72
2023/10/28 11:32:08;;;;;;;3.75;1.20;;;;;;;;;;5052828;28;20016;-72
2023/10/28 11:34:44;;;;;;;4.00;1.25;;;;;;;;;;5052552;28;20037;-72
2023/10/28 11:37:11;;;;;;;3.20;1.13;;;;;;;;;;5052672;28;20075;-72
2023/10/28 11:39:39;;;;;;;3.50;1.10;;;;;;;;;;5052749;28;20484;-72
2023/10/28 11:42:11;;;;;;;3.58;1.40;;;;;;;;;;5052676;28;20385;-72
2023/10/28 11:44:38;;;;;;;3.58;1.40;;;;;;;;;;5052446;28;20017;-72
2023/10/28 11:47:05;;;;;;;6.82;1.17;;;;;;;;;;5052397;28;20021;-72
2023/10/28 11:49:31;;;;;;;2.55;1.00;;;;;;;;;;5052829;28;20025;-72
2023/10/28 11:51:58;;;;;;;4.30;1.08;;;;;;;;;;5052802;28;20027;-72
2023/10/28 11:54:24;;;;;;;3.30;1.00;;;;;;;;;;5052660;28;20029;-72
2023/10/28 11:56:51;;;;;;;3.55;1.00;;;;;;;;;;5052520;28;20024;-72
2023/10/28 11:59:17;;;;;;;4.45;1.10;;;;;;;;;;5052583;28;20390;-72
2023/10/28 12:01:44;;;;;;;2.55;1.02;;;;;;;;;;5052038;28;20040;-72
2023/10/28 12:04:10;;;;;;;3.28;1.10;;;;;;;;;;5052478;28;20021;-72
2023/10/28 12:06:37;;;;;;;3.85;1.23;;;;;;;;;;5052686;28;20037;-72
2023/10/28 12:09:04;;;;;;;3.17;1.23;;;;;;;;;;5052352;28;20492;-72
2023/10/28 12:11:31;;;;;;;3.55;1.20;;;;;;;;;;5054396;28;20031;-72
2023/10/28 12:13:58;;;;;;;2.42;1.10;;;;;;;;;;5056343;28;20021;-72
2023/10/28 12:16:25;;;;;;;3.17;1.20;;;;;;;;;;5056210;28;20017;-72
2023/10/28 12:18:51;;;;;;;2.13;1.10;;;;;;;;;;5056657;28;20020;-72
2023/10/28 12:21:18;;;;;;;2.13;1.00;;;;;;;;;;5056311;28;20039;-73
2023/10/28 12:23:48;;;;;;;2.53;1.00;;;;;;;;;;5056238;28;20017;-73
2023/10/28 12:26:14;;;;;;;6.78;1.58;;;;;;;;;;5056238;28;20029;-72
2023/10/28 12:28:40;;;;;;;2.08;1.20;;;;;;;;;;5056149;28;20025;-72
2023/10/28 12:31:07;;;;;;;2.78;1.08;;;;;;;;;;5056064;28;20043;-72
2023/10/28 12:33:33;;;;;;;3.80;1.85;;;;;;;;;;5054793;28;20025;-73
2023/10/28 12:35:59;;;;;;;3.70;1.33;;;;;;;;;;5056044;28;20029;-72
2023/10/28 12:38:26;;;;;;;5.35;1.70;;;;;;;;;;5056022;28;20021;-72
2023/10/28 12:40:52;;;;;;;2.95;1.20;;;;;;;;;;5056229;28;20029;-72
2023/10/28 12:43:18;;;;;;;3.83;1.30;;;;;;;;;;5055904;28;20023;-72
2023/10/28 12:45:45;;;;;;;1.60;0.90;;;;;;;;;;5055302;28;20028;-72
2023/10/28 12:48:11;;;;;;;3.22;1.00;;;;;;;;;;5055814;28;20033;-72
2023/10/28 12:50:37;;;;;;;2.28;0.93;;;;;;;;;;5056068;28;20029;-72
2023/10/28 12:53:03;;;;;;;4.40;1.30;;;;;;;;;;5055725;28;20019;-72
2023/10/28 12:55:30;;;;;;;2.72;1.00;;;;;;;;;;5055663;28;20536;-72
2023/10/28 12:57:57;;;;;;;2.90;1.45;;;;;;;;;;5055739;28;20041;-72
2023/10/28 13:00:24;;;;;;;2.35;1.00;;;;;;;;;;5055531;28;20025;-72
2023/10/28 13:02:52;;;;;;;1.77;0.95;;;;;;;;;;5055535;28;20101;-73
2023/10/28 13:05:18;;;;;;;2.22;1.00;;;;;;;;;;5055762;28;20013;-72
2023/10/28 13:07:44;;;;;;;1.85;1.20;;;;;;;;;;5055420;28;20031;-72
2023/10/28 13:10:11;;;;;;;3.55;1.50;;;;;;;;;;5055432;28;20466;-72
2023/10/28 13:12:37;;;;;;;2.67;1.02;;;;;;;;;;5055353;28;20025;-73
2023/10/28 13:15:04;;;;;;;2.00;1.00;;;;;;;;;;5054827;28;20063;-72
2023/10/28 13:17:31;;;;;;;2.30;1.23;;;;;;;;;;5055305;28;20078;-72
2023/10/28 13:19:57;;;;;;;3.25;1.60;;;;;;;;;;5055280;28;20029;-72
2023/10/28 13:22:23;;;;;;;3.03;1.40;;;;;;;;;;5054874;28;20028;-72
2023/10/28 13:24:50;;;;;;;5.18;1.38;;;;;;;;;;5055149;28;20034;-72
2023/10/28 13:27:16;;;;;;;3.67;1.00;;;;;;;;;;5055486;28;20021;-72
2023/10/28 13:29:43;;;;;;;5.55;1.20;;;;;;;;;;5055238;28;20029;-72
2023/10/28 13:32:10;;;;;;;3.60;1.00;;;;;;;;;;5053835;28;20024;-72
2023/10/28 13:34:38;;;;;;;4.88;1.38;;;;;;;;;;5054886;28;20039;-72
2023/10/28 13:37:04;;;;;;;2.38;0.98;;;;;;;;;;5055226;28;20021;-72
2023/10/28 13:39:31;;;;;;;3.45;1.13;;;;;;;;;;5054819;28;20017;-72
2023/10/28 13:41:57;;;;;;;2.92;1.30;;;;;;;;;;5054821;28;21112;-72
2023/10/28 13:44:23;;;;;;;3.42;1.20;;;;;;;;;;5054273;28;20017;-72
2023/10/28 13:46:50;;;;;;;3.15;1.00;;;;;;;;;;5055043;28;20039;-72
2023/10/28 13:49:20;;;;;;;4.20;1.20;;;;;;;;;;5054692;28;20031;-72
2023/10/28 13:51:49;;;;;;;2.03;1.08;;;;;;;;;;5054527;28;20021;-72
2023/10/28 13:54:15;;;;;;;3.45;1.40;;;;;;;;;;5054473;28;20043;-72
2023/10/28 13:56:41;;;;;;;2.75;1.30;;;;;;;;;;5053377;28;20025;-72
2023/10/28 13:59:08;;;;;;;2.78;1.30;;;;;;;;;;5052802;28;20044;-72
2023/10/28 14:01:34;;;;;;;4.88;1.70;;;;;;;;;;5054703;28;20021;-72
2023/10/28 14:04:01;;;;;;;5.15;1.50;;;;;;;;;;5054386;28;20363;-72
2023/10/28 14:06:27;;;;;;;5.38;1.60;;;;;;;;;;5054688;28;20087;-72
2023/10/28 14:08:53;;;;;;;4.20;1.25;;;;;;;;;;5054334;28;20021;-72
2023/10/28 14:11:23;;;;;;;4.13;1.20;;;;;;;;;;5054508;28;20059;-72
2023/10/28 14:13:50;;;;;;;2.08;1.10;;;;;;;;;;5053842;28;20049;-72
2023/10/28 14:16:17;;;;;;;4.70;1.38;;;;;;;;;;5054210;28;20029;-71
2023/10/28 14:18:52;;;;;;;6.35;1.52;;;;;;;;;;5054188;28;20539;-72
2023/10/28 14:21:20;;;;;;;5.03;1.38;;;;;;;;;;5054421;28;20025;-72
2023/10/28 14:23:46;;;;;;;4.38;1.33;;;;;;;;;;5054196;28;20028;-72
2023/10/28 14:26:13;;;;;;;4.35;1.20;;;;;;;;;;5054213;28;20059;-72
2023/10/28 14:28:40;;;;;;;5.88;1.27;;;;;;;;;;5053641;28;20020;-71
2023/10/28 14:31:06;;;;;;;5.07;1.33;;;;;;;;;;5053874;28;20029;-72
2023/10/28 14:33:33;;;;;;;3.30;1.40;;;;;;;;;;5053815;28;20478;-72
2023/10/28 14:36:06;;;;;;;5.10;1.38;;;;;;;;;;5051650;28;20037;-72
2023/10/28 14:38:32;;;;;;;3.85;1.50;;;;;;;;;;5054039;28;20070;-72